sensor_id;sensor_type;location;lat;lon;timestamp;P1;durP1;ratioP1;P2;durP2;ratioP2
14100;SDS011;7127;49.372;8.166;2023-11-19T00:02:25;1.07;;;0.80;;
14100;SDS011;7127;49.372;8.166;2023-11-19T00:04:51;1.00;;;0.53;;
14100;SDS011;7127;49.372;8.166;2023-11-19T00:07:19;0.50;;;0.50;;
14100;SDS011;7127;49.372;8.166;2023-11-19T00:09:46;0.37;;;0.37;;
14100;SDS011;7127;49.372;8.166;2023-11-19T00:12:14;0.77;;;0.40;;
14100;SDS011;7127;49.372;8.166;2023-11-19T00:14:41;0.60;;;0.43;;
14100;SDS011;7127;49.372;8.166;2023-11-19T00:17:08;0.90;;;0.50;;
14100;SDS011;7127;49.372;8.166;2023-11-19T00:19:35;0.37;;;0.37;;
14100;SDS011;7127;49.372;8.166;2023-11-19T00:22:01;0.87;;;0.50;;
14100;SDS011;7127;49.372;8.166;2023-11-19T00:24:29;1.10;;;0.50;;
14100;SDS011;7127;49.372;8.166;2023-11-19T00:26:55;0.40;;;0.40;;
14100;SDS011;7127;49.372;8.166;2023-11-19T00:29:24;1.17;;;0.50;;
14100;SDS011;7127;49.372;8.166;2023-11-19T00:31:51;0.40;;;0.40;;
14100;SDS011;7127;49.372;8.166;2023-11-19T00:34:17;0.30;;;0.30;;
14100;SDS011;7127;49.372;8.166;2023-11-19T00:36:47;0.30;;;0.30;;
14100;SDS011;7127;49.372;8.166;2023-11-19T00:39:14;0.17;;;0.17;;
14100;SDS011;7127;49.372;8.166;2023-11-19T00:41:43;0.20;;;0.20;;
14100;SDS011;7127;49.372;8.166;2023-11-19T00:44:11;0.10;;;0.10;;
14100;SDS011;7127;49.372;8.166;2023-11-19T00:46:39;0.47;;;0.23;;
14100;SDS011;7127;49.372;8.166;2023-11-19T00:49:06;0.07;;;0.07;;
14100;SDS011;7127;49.372;8.166;2023-11-19T00:51:33;0.10;;;0.10;;
14100;SDS011;7127;49.372;8.166;2023-11-19T00:53:59;0.03;;;0.03;;
14100;SDS011;7127;49.372;8.166;2023-11-19T00:56:27;0.20;;;0.20;;
14100;SDS011;7127;49.372;8.166;2023-11-19T00:58:53;0.00;;;0.00;;
14100;SDS011;7127;49.372;8.166;2023-11-19T01:01:20;0.10;;;0.03;;
14100;SDS011;7127;49.372;8.166;2023-11-19T01:03:49;0.20;;;0.10;;
14100;SDS011;7127;49.372;8.166;2023-11-19T01:06:26;0.20;;;0.10;;
14100;SDS011;7127;49.372;8.166;2023-11-19T01:08:53;0.57;;;0.53;;
14100;SDS011;7127;49.372;8.166;2023-11-19T01:11:21;0.20;;;0.20;;
14100;SDS011;7127;49.372;8.166;2023-11-19T01:13:48;0.10;;;0.10;;
14100;SDS011;7127;49.372;8.166;2023-11-19T01:16:16;0.00;;;0.00;;
14100;SDS011;7127;49.372;8.166;2023-11-19T01:18:43;0.00;;;0.00;;
14100;SDS011;7127;49.372;8.166;2023-11-19T01:21:11;0.00;;;0.00;;
14100;SDS011;7127;49.372;8.166;2023-11-19T01:23:39;0.00;;;0.00;;
14100;SDS011;7127;49.372;8.166;2023-11-19T01:26:08;0.00;;;0.00;;
14100;SDS011;7127;49.372;8.166;2023-11-19T01:28:35;0.00;;;0.00;;
14100;SDS011;7127;49.372;8.166;2023-11-19T01:31:02;0.00;;;0.00;;
14100;SDS011;7127;49.372;8.166;2023-11-19T01:33:29;0.00;;;0.00;;
14100;SDS011;7127;49.372;8.166;2023-11-19T01:35:56;0.10;;;0.00;;
14100;SDS011;7127;49.372;8.166;2023-11-19T01:38:25;0.00;;;0.00;;
14100;SDS011;7127;49.372;8.166;2023-11-19T01:40:55;0.00;;;0.00;;
14100;SDS011;7127;49.372;8.166;2023-11-19T01:43:32;0.23;;;0.00;;
14100;SDS011;7127;49.372;8.166;2023-11-19T01:45:59;0.00;;;0.00;;
14100;SDS011;7127;49.372;8.166;2023-11-19T01:48:26;0.43;;;0.20;;
14100;SDS011;7127;49.372;8.166;2023-11-19T01:50:53;0.87;;;0.10;;
14100;SDS011;7127;49.372;8.166;2023-11-19T01:53:21;0.00;;;0.00;;
14100;SDS011;7127;49.372;8.166;2023-11-19T01:55:49;0.00;;;0.00;;
14100;SDS011;7127;49.372;8.166;2023-11-19T01:58:17;0.10;;;0.07;;
14100;SDS011;7127;49.372;8.166;2023-11-19T02:00:44;0.00;;;0.00;;
14100;SDS011;7127;49.372;8.166;2023-11-19T02:03:11;0.10;;;0.10;;
14100;SDS011;7127;49.372;8.166;2023-11-19T02:05:39;0.03;;;0.00;;
14100;SDS011;7127;49.372;8.166;2023-11-19T02:08:06;0.17;;;0.17;;
14100;SDS011;7127;49.372;8.166;2023-11-19T02:10:33;0.40;;;0.10;;
14100;SDS011;7127;49.372;8.166;2023-11-19T02:13:01;0.50;;;0.10;;
14100;SDS011;7127;49.372;8.166;2023-11-19T02:15:30;0.00;;;0.00;;
14100;SDS011;7127;49.372;8.166;2023-11-19T02:17:57;0.10;;;0.10;;
14100;SDS011;7127;49.372;8.166;2023-11-19T02:20:43;0.10;;;0.10;;
14100;SDS011;7127;49.372;8.166;2023-11-19T02:23:11;0.20;;;0.20;;
14100;SDS011;7127;49.372;8.166;2023-11-19T02:25:39;0.10;;;0.10;;
14100;SDS011;7127;49.372;8.166;2023-11-19T02:28:08;0.00;;;0.00;;
14100;SDS011;7127;49.372;8.166;2023-11-19T02:30:37;0.50;;;0.20;;
14100;SDS011;7127;49.372;8.166;2023-11-19T02:33:03;0.10;;;0.10;;
14100;SDS011;7127;49.372;8.166;2023-11-19T02:35:31;0.10;;;0.10;;
14100;SDS011;7127;49.372;8.166;2023-11-19T02:37:58;0.07;;;0.07;;
14100;SDS011;7127;49.372;8.166;2023-11-19T02:40:25;0.20;;;0.13;;
14100;SDS011;7127;49.372;8.166;2023-11-19T02:42:52;0.30;;;0.27;;
14100;SDS011;7127;49.372;8.166;2023-11-19T02:45:22;0.00;;;0.00;;
14100;SDS011;7127;49.372;8.166;2023-11-19T02:47:49;0.00;;;0.00;;
14100;SDS011;7127;49.372;8.166;2023-11-19T02:50:16;0.10;;;0.10;;
14100;SDS011;7127;49.372;8.166;2023-11-19T02:52:50;0.10;;;0.10;;
14100;SDS011;7127;49.372;8.166;2023-11-19T02:55:18;0.10;;;0.10;;
14100;SDS011;7127;49.372;8.166;2023-11-19T02:57:45;0.07;;;0.07;;
14100;SDS011;7127;49.372;8.166;2023-11-19T03:00:14;0.10;;;0.10;;
14100;SDS011;7127;49.372;8.166;2023-11-19T03:02:43;0.10;;;0.10;;
14100;SDS011;7127;49.372;8.166;2023-11-19T03:05:11;0.10;;;0.00;;
14100;SDS011;7127;49.372;8.166;2023-11-19T03:07:39;0.10;;;0.10;;
14100;SDS011;7127;49.372;8.166;2023-11-19T03:10:08;0.10;;;0.10;;
14100;SDS011;7127;49.372;8.166;2023-11-19T03:12:38;0.10;;;0.10;;
14100;SDS011;7127;49.372;8.166;2023-11-19T03:15:06;0.07;;;0.07;;
14100;SDS011;7127;49.372;8.166;2023-11-19T03:17:34;0.23;;;0.20;;
14100;SDS011;7127;49.372;8.166;2023-11-19T03:20:03;0.30;;;0.17;;
14100;SDS011;7127;49.372;8.166;2023-11-19T03:22:34;0.10;;;0.10;;
14100;SDS011;7127;49.372;8.166;2023-11-19T03:25:03;0.10;;;0.10;;
14100;SDS011;7127;49.372;8.166;2023-11-19T03:27:33;0.17;;;0.17;;
14100;SDS011;7127;49.372;8.166;2023-11-19T03:30:00;0.20;;;0.20;;
14100;SDS011;7127;49.372;8.166;2023-11-19T03:32:27;1.23;;;0.40;;
14100;SDS011;7127;49.372;8.166;2023-11-19T03:34:54;0.20;;;0.20;;
14100;SDS011;7127;49.372;8.166;2023-11-19T03:37:23;0.40;;;0.30;;
14100;SDS011;7127;49.372;8.166;2023-11-19T03:39:50;0.23;;;0.23;;
14100;SDS011;7127;49.372;8.166;2023-11-19T03:42:18;0.10;;;0.10;;
14100;SDS011;7127;49.372;8.166;2023-11-19T03:44:45;0.30;;;0.20;;
14100;SDS011;7127;49.372;8.166;2023-11-19T03:47:12;0.20;;;0.20;;
14100;SDS011;7127;49.372;8.166;2023-11-19T03:49:39;0.27;;;0.27;;
14100;SDS011;7127;49.372;8.166;2023-11-19T03:52:06;0.33;;;0.33;;
14100;SDS011;7127;49.372;8.166;2023-11-19T03:54:35;0.20;;;0.20;;
14100;SDS011;7127;49.372;8.166;2023-11-19T03:57:02;0.40;;;0.40;;
14100;SDS011;7127;49.372;8.166;2023-11-19T03:59:30;0.30;;;0.30;;
14100;SDS011;7127;49.372;8.166;2023-11-19T04:01:58;0.10;;;0.10;;
14100;SDS011;7127;49.372;8.166;2023-11-19T04:04:25;0.50;;;0.50;;
14100;SDS011;7127;49.372;8.166;2023-11-19T04:06:52;0.40;;;0.40;;
14100;SDS011;7127;49.372;8.166;2023-11-19T04:09:19;0.70;;;0.60;;
14100;SDS011;7127;49.372;8.166;2023-11-19T04:11:47;0.70;;;0.70;;
14100;SDS011;7127;49.372;8.166;2023-11-19T04:14:14;1.47;;;0.60;;
14100;SDS011;7127;49.372;8.166;2023-11-19T04:16:43;0.40;;;0.40;;
14100;SDS011;7127;49.372;8.166;2023-11-19T04:19:10;0.63;;;0.63;;
14100;SDS011;7127;49.372;8.166;2023-11-19T04:21:37;0.30;;;0.30;;
14100;SDS011;7127;49.372;8.166;2023-11-19T04:24:07;0.40;;;0.40;;
14100;SDS011;7127;49.372;8.166;2023-11-19T04:26:39;0.57;;;0.57;;
14100;SDS011;7127;49.372;8.166;2023-11-19T04:29:08;0.40;;;0.40;;
14100;SDS011;7127;49.372;8.166;2023-11-19T04:31:36;0.33;;;0.30;;
14100;SDS011;7127;49.372;8.166;2023-11-19T04:34:03;0.70;;;0.40;;
14100;SDS011;7127;49.372;8.166;2023-11-19T04:36:30;0.40;;;0.37;;
14100;SDS011;7127;49.372;8.166;2023-11-19T04:38:56;0.40;;;0.40;;
14100;SDS011;7127;49.372;8.166;2023-11-19T04:41:24;0.60;;;0.40;;
14100;SDS011;7127;49.372;8.166;2023-11-19T04:43:52;0.40;;;0.30;;
14100;SDS011;7127;49.372;8.166;2023-11-19T04:46:20;0.40;;;0.40;;
14100;SDS011;7127;49.372;8.166;2023-11-19T04:48:48;0.30;;;0.30;;
14100;SDS011;7127;49.372;8.166;2023-11-19T04:51:16;0.47;;;0.30;;
14100;SDS011;7127;49.372;8.166;2023-11-19T04:53:43;0.30;;;0.30;;
14100;SDS011;7127;49.372;8.166;2023-11-19T04:56:10;0.60;;;0.40;;
14100;SDS011;7127;49.372;8.166;2023-11-19T04:58:38;0.20;;;0.20;;
14100;SDS011;7127;49.372;8.166;2023-11-19T05:01:05;0.77;;;0.37;;
14100;SDS011;7127;49.372;8.166;2023-11-19T05:03:34;0.20;;;0.20;;
14100;SDS011;7127;49.372;8.166;2023-11-19T05:06:01;0.60;;;0.40;;
14100;SDS011;7127;49.372;8.166;2023-11-19T05:08:28;0.40;;;0.40;;
14100;SDS011;7127;49.372;8.166;2023-11-19T05:10:55;0.53;;;0.40;;
14100;SDS011;7127;49.372;8.166;2023-11-19T05:13:22;0.40;;;0.27;;
14100;SDS011;7127;49.372;8.166;2023-11-19T05:15:49;0.40;;;0.40;;
14100;SDS011;7127;49.372;8.166;2023-11-19T05:18:16;0.30;;;0.30;;
14100;SDS011;7127;49.372;8.166;2023-11-19T05:20:45;0.77;;;0.30;;
14100;SDS011;7127;49.372;8.166;2023-11-19T05:23:12;0.30;;;0.30;;
14100;SDS011;7127;49.372;8.166;2023-11-19T05:25:38;0.20;;;0.20;;
14100;SDS011;7127;49.372;8.166;2023-11-19T05:28:06;0.30;;;0.30;;
14100;SDS011;7127;49.372;8.166;2023-11-19T05:30:33;0.63;;;0.40;;
14100;SDS011;7127;49.372;8.166;2023-11-19T05:33:00;0.23;;;0.23;;
14100;SDS011;7127;49.372;8.166;2023-11-19T05:35:27;0.40;;;0.40;;
14100;SDS011;7127;49.372;8.166;2023-11-19T05:37:55;0.63;;;0.43;;
14100;SDS011;7127;49.372;8.166;2023-11-19T05:40:22;0.30;;;0.30;;
14100;SDS011;7127;49.372;8.166;2023-11-19T05:42:48;0.40;;;0.40;;
14100;SDS011;7127;49.372;8.166;2023-11-19T05:45:15;2.33;;;0.40;;
14100;SDS011;7127;49.372;8.166;2023-11-19T05:47:42;0.93;;;0.47;;
14100;SDS011;7127;49.372;8.166;2023-11-19T05:50:09;0.47;;;0.17;;
14100;SDS011;7127;49.372;8.166;2023-11-19T05:52:36;1.10;;;0.50;;
14100;SDS011;7127;49.372;8.166;2023-11-19T05:55:05;1.47;;;0.43;;
14100;SDS011;7127;49.372;8.166;2023-11-19T05:57:34;0.27;;;0.27;;
14100;SDS011;7127;49.372;8.166;2023-11-19T06:00:01;0.43;;;0.30;;
14100;SDS011;7127;49.372;8.166;2023-11-19T06:02:32;0.23;;;0.23;;
14100;SDS011;7127;49.372;8.166;2023-11-19T06:04:59;0.50;;;0.30;;
14100;SDS011;7127;49.372;8.166;2023-11-19T06:07:26;0.30;;;0.10;;
14100;SDS011;7127;49.372;8.166;2023-11-19T06:09:52;0.30;;;0.23;;
14100;SDS011;7127;49.372;8.166;2023-11-19T06:12:21;0.50;;;0.27;;
14100;SDS011;7127;49.372;8.166;2023-11-19T06:14:47;0.87;;;0.43;;
14100;SDS011;7127;49.372;8.166;2023-11-19T06:17:14;1.43;;;0.30;;
14100;SDS011;7127;49.372;8.166;2023-11-19T06:19:41;0.30;;;0.30;;
14100;SDS011;7127;49.372;8.166;2023-11-19T06:22:08;0.53;;;0.30;;
14100;SDS011;7127;49.372;8.166;2023-11-19T06:24:35;0.43;;;0.30;;
14100;SDS011;7127;49.372;8.166;2023-11-19T06:27:02;0.30;;;0.30;;
14100;SDS011;7127;49.372;8.166;2023-11-19T06:29:31;0.60;;;0.27;;
14100;SDS011;7127;49.372;8.166;2023-11-19T06:31:58;0.37;;;0.37;;
14100;SDS011;7127;49.372;8.166;2023-11-19T06:34:25;1.23;;;0.53;;
14100;SDS011;7127;49.372;8.166;2023-11-19T06:36:52;0.67;;;0.30;;
14100;SDS011;7127;49.372;8.166;2023-11-19T06:39:19;0.83;;;0.40;;
14100;SDS011;7127;49.372;8.166;2023-11-19T06:41:46;0.37;;;0.20;;
14100;SDS011;7127;49.372;8.166;2023-11-19T06:44:13;1.43;;;0.97;;
14100;SDS011;7127;49.372;8.166;2023-11-19T06:46:42;2.53;;;0.60;;
14100;SDS011;7127;49.372;8.166;2023-11-19T06:49:08;1.60;;;0.90;;
14100;SDS011;7127;49.372;8.166;2023-11-19T06:51:35;1.57;;;0.73;;
14100;SDS011;7127;49.372;8.166;2023-11-19T06:54:06;0.87;;;0.70;;
14100;SDS011;7127;49.372;8.166;2023-11-19T06:56:33;0.67;;;0.40;;
14100;SDS011;7127;49.372;8.166;2023-11-19T06:59:00;0.73;;;0.50;;
14100;SDS011;7127;49.372;8.166;2023-11-19T07:01:27;0.53;;;0.50;;
14100;SDS011;7127;49.372;8.166;2023-11-19T07:03:55;1.10;;;0.60;;
14100;SDS011;7127;49.372;8.166;2023-11-19T07:06:23;1.67;;;0.40;;
14100;SDS011;7127;49.372;8.166;2023-11-19T07:08:49;1.57;;;0.40;;
14100;SDS011;7127;49.372;8.166;2023-11-19T07:11:16;3.00;;;0.80;;
14100;SDS011;7127;49.372;8.166;2023-11-19T07:13:43;2.73;;;0.60;;
14100;SDS011;7127;49.372;8.166;2023-11-19T07:16:11;0.40;;;0.40;;
14100;SDS011;7127;49.372;8.166;2023-11-19T07:18:39;1.30;;;0.53;;
14100;SDS011;7127;49.372;8.166;2023-11-19T07:21:08;0.47;;;0.27;;
14100;SDS011;7127;49.372;8.166;2023-11-19T07:23:35;0.53;;;0.30;;
14100;SDS011;7127;49.372;8.166;2023-11-19T07:26:04;0.67;;;0.40;;
14100;SDS011;7127;49.372;8.166;2023-11-19T07:28:33;0.20;;;0.20;;
14100;SDS011;7127;49.372;8.166;2023-11-19T07:31:00;0.40;;;0.40;;
14100;SDS011;7127;49.372;8.166;2023-11-19T07:33:27;0.17;;;0.10;;
14100;SDS011;7127;49.372;8.166;2023-11-19T07:35:54;0.20;;;0.10;;
14100;SDS011;7127;49.372;8.166;2023-11-19T07:38:22;0.10;;;0.10;;
14100;SDS011;7127;49.372;8.166;2023-11-19T07:40:49;0.70;;;0.40;;
14100;SDS011;7127;49.372;8.166;2023-11-19T07:43:16;0.20;;;0.20;;
14100;SDS011;7127;49.372;8.166;2023-11-19T07:45:43;0.77;;;0.43;;
14100;SDS011;7127;49.372;8.166;2023-11-19T07:48:10;1.13;;;0.47;;
14100;SDS011;7127;49.372;8.166;2023-11-19T07:50:38;1.33;;;0.43;;
14100;SDS011;7127;49.372;8.166;2023-11-19T07:53:05;0.97;;;0.40;;
14100;SDS011;7127;49.372;8.166;2023-11-19T07:55:34;0.83;;;0.50;;
14100;SDS011;7127;49.372;8.166;2023-11-19T07:58:01;0.50;;;0.40;;
14100;SDS011;7127;49.372;8.166;2023-11-19T08:00:41;1.90;;;1.00;;
14100;SDS011;7127;49.372;8.166;2023-11-19T08:03:08;1.77;;;0.60;;
14100;SDS011;7127;49.372;8.166;2023-11-19T08:05:35;1.13;;;0.60;;
14100;SDS011;7127;49.372;8.166;2023-11-19T08:08:02;1.10;;;0.60;;
14100;SDS011;7127;49.372;8.166;2023-11-19T08:10:29;1.23;;;0.63;;
14100;SDS011;7127;49.372;8.166;2023-11-19T08:12:59;3.77;;;1.80;;
14100;SDS011;7127;49.372;8.166;2023-11-19T08:15:26;1.77;;;1.10;;
14100;SDS011;7127;49.372;8.166;2023-11-19T08:17:53;0.97;;;0.70;;
14100;SDS011;7127;49.372;8.166;2023-11-19T08:20:19;1.97;;;0.93;;
14100;SDS011;7127;49.372;8.166;2023-11-19T08:22:46;1.17;;;0.80;;
14100;SDS011;7127;49.372;8.166;2023-11-19T08:25:13;1.53;;;0.83;;
14100;SDS011;7127;49.372;8.166;2023-11-19T08:27:40;1.27;;;0.80;;
14100;SDS011;7127;49.372;8.166;2023-11-19T08:30:09;1.93;;;0.90;;
14100;SDS011;7127;49.372;8.166;2023-11-19T08:32:37;1.80;;;0.70;;
14100;SDS011;7127;49.372;8.166;2023-11-19T08:35:03;1.07;;;0.80;;
14100;SDS011;7127;49.372;8.166;2023-11-19T08:37:30;1.30;;;0.80;;
14100;SDS011;7127;49.372;8.166;2023-11-19T08:39:57;0.70;;;0.50;;
14100;SDS011;7127;49.372;8.166;2023-11-19T08:42:24;2.07;;;0.67;;
14100;SDS011;7127;49.372;8.166;2023-11-19T08:44:51;0.63;;;0.50;;
14100;SDS011;7127;49.372;8.166;2023-11-19T08:47:21;1.80;;;0.90;;
14100;SDS011;7127;49.372;8.166;2023-11-19T08:49:51;1.77;;;0.70;;
14100;SDS011;7127;49.372;8.166;2023-11-19T08:52:19;1.50;;;0.87;;
14100;SDS011;7127;49.372;8.166;2023-11-19T08:54:46;1.50;;;0.80;;
14100;SDS011;7127;49.372;8.166;2023-11-19T08:57:47;1.60;;;0.80;;
14100;SDS011;7127;49.372;8.166;2023-11-19T09:03:41;2.07;;;0.93;;
14100;SDS011;7127;49.372;8.166;2023-11-19T09:06:08;1.93;;;1.00;;
14100;SDS011;7127;49.372;8.166;2023-11-19T09:08:45;1.20;;;0.70;;
14100;SDS011;7127;49.372;8.166;2023-11-19T09:11:12;1.20;;;0.90;;
14100;SDS011;7127;49.372;8.166;2023-11-19T09:13:39;1.20;;;0.80;;
14100;SDS011;7127;49.372;8.166;2023-11-19T09:16:07;0.97;;;0.63;;
14100;SDS011;7127;49.372;8.166;2023-11-19T09:18:34;1.30;;;0.77;;
14100;SDS011;7127;49.372;8.166;2023-11-19T09:21:02;2.53;;;1.10;;
14100;SDS011;7127;49.372;8.166;2023-11-19T09:23:29;1.27;;;0.80;;
14100;SDS011;7127;49.372;8.166;2023-11-19T09:26:00;1.17;;;0.97;;
14100;SDS011;7127;49.372;8.166;2023-11-19T09:28:27;1.07;;;0.80;;
14100;SDS011;7127;49.372;8.166;2023-11-19T09:30:54;1.90;;;0.73;;
14100;SDS011;7127;49.372;8.166;2023-11-19T09:33:21;1.10;;;0.80;;
14100;SDS011;7127;49.372;8.166;2023-11-19T09:35:48;2.07;;;0.70;;
14100;SDS011;7127;49.372;8.166;2023-11-19T09:38:16;1.23;;;0.63;;
14100;SDS011;7127;49.372;8.166;2023-11-19T09:40:43;1.07;;;0.70;;
14100;SDS011;7127;49.372;8.166;2023-11-19T09:43:10;1.00;;;0.70;;
14100;SDS011;7127;49.372;8.166;2023-11-19T09:45:48;1.47;;;0.70;;
14100;SDS011;7127;49.372;8.166;2023-11-19T09:48:16;0.80;;;0.70;;
14100;SDS011;7127;49.372;8.166;2023-11-19T09:50:44;1.93;;;0.97;;
14100;SDS011;7127;49.372;8.166;2023-11-19T09:53:13;3.50;;;1.70;;
14100;SDS011;7127;49.372;8.166;2023-11-19T09:55:41;2.57;;;1.00;;
14100;SDS011;7127;49.372;8.166;2023-11-19T09:58:09;1.70;;;0.77;;
14100;SDS011;7127;49.372;8.166;2023-11-19T10:00:38;1.20;;;0.57;;
14100;SDS011;7127;49.372;8.166;2023-11-19T10:03:05;2.57;;;0.80;;
14100;SDS011;7127;49.372;8.166;2023-11-19T10:05:35;1.00;;;0.80;;
14100;SDS011;7127;49.372;8.166;2023-11-19T10:08:03;2.37;;;1.20;;
14100;SDS011;7127;49.372;8.166;2023-11-19T10:10:30;1.23;;;0.80;;
14100;SDS011;7127;49.372;8.166;2023-11-19T10:12:59;1.27;;;0.70;;
14100;SDS011;7127;49.372;8.166;2023-11-19T10:15:26;1.70;;;0.50;;
14100;SDS011;7127;49.372;8.166;2023-11-19T10:17:54;1.80;;;0.80;;
14100;SDS011;7127;49.372;8.166;2023-11-19T10:20:21;2.17;;;0.73;;
14100;SDS011;7127;49.372;8.166;2023-11-19T10:22:50;1.03;;;0.70;;
14100;SDS011;7127;49.372;8.166;2023-11-19T10:25:23;0.90;;;0.70;;
14100;SDS011;7127;49.372;8.166;2023-11-19T10:27:51;2.73;;;1.00;;
14100;SDS011;7127;49.372;8.166;2023-11-19T10:30:19;1.43;;;1.20;;
14100;SDS011;7127;49.372;8.166;2023-11-19T10:32:57;1.17;;;0.80;;
14100;SDS011;7127;49.372;8.166;2023-11-19T10:35:31;2.57;;;0.77;;
14100;SDS011;7127;49.372;8.166;2023-11-19T10:37:59;0.70;;;0.57;;
14100;SDS011;7127;49.372;8.166;2023-11-19T10:40:39;3.13;;;1.00;;
14100;SDS011;7127;49.372;8.166;2023-11-19T10:43:06;0.93;;;0.70;;
14100;SDS011;7127;49.372;8.166;2023-11-19T10:45:35;0.47;;;0.40;;
14100;SDS011;7127;49.372;8.166;2023-11-19T10:48:02;1.60;;;0.73;;
14100;SDS011;7127;49.372;8.166;2023-11-19T10:50:32;0.60;;;0.60;;
14100;SDS011;7127;49.372;8.166;2023-11-19T10:52:59;1.80;;;1.00;;
14100;SDS011;7127;49.372;8.166;2023-11-19T10:55:27;1.73;;;0.90;;
14100;SDS011;7127;49.372;8.166;2023-11-19T10:57:58;5.10;;;0.93;;
14100;SDS011;7127;49.372;8.166;2023-11-19T11:00:26;3.13;;;1.40;;
14100;SDS011;7127;49.372;8.166;2023-11-19T11:02:59;1.80;;;0.80;;
14100;SDS011;7127;49.372;8.166;2023-11-19T11:06:00;2.13;;;1.10;;
14100;SDS011;7127;49.372;8.166;2023-11-19T11:08:30;2.23;;;1.00;;
14100;SDS011;7127;49.372;8.166;2023-11-19T11:10:57;1.60;;;0.80;;
14100;SDS011;7127;49.372;8.166;2023-11-19T11:13:25;2.17;;;1.00;;
14100;SDS011;7127;49.372;8.166;2023-11-19T11:15:54;2.47;;;1.23;;
14100;SDS011;7127;49.372;8.166;2023-11-19T11:18:41;2.13;;;0.90;;
14100;SDS011;7127;49.372;8.166;2023-11-19T11:21:09;2.97;;;1.07;;
14100;SDS011;7127;49.372;8.166;2023-11-19T11:23:56;2.10;;;0.93;;
14100;SDS011;7127;49.372;8.166;2023-11-19T11:26:58;1.80;;;0.80;;
14100;SDS011;7127;49.372;8.166;2023-11-19T11:29:54;1.70;;;0.90;;
14100;SDS011;7127;49.372;8.166;2023-11-19T11:32:32;1.13;;;0.70;;
14100;SDS011;7127;49.372;8.166;2023-11-19T11:35:19;1.23;;;0.80;;
14100;SDS011;7127;49.372;8.166;2023-11-19T11:37:55;5.47;;;2.13;;
14100;SDS011;7127;49.372;8.166;2023-11-19T11:40:28;3.87;;;1.40;;
14100;SDS011;7127;49.372;8.166;2023-11-19T11:42:54;2.67;;;1.00;;
14100;SDS011;7127;49.372;8.166;2023-11-19T11:45:34;5.97;;;1.50;;
14100;SDS011;7127;49.372;8.166;2023-11-19T11:48:08;2.20;;;1.00;;
14100;SDS011;7127;49.372;8.166;2023-11-19T11:50:48;0.80;;;0.80;;
14100;SDS011;7127;49.372;8.166;2023-11-19T11:53:17;1.53;;;1.03;;
14100;SDS011;7127;49.372;8.166;2023-11-19T11:55:54;1.50;;;0.87;;
14100;SDS011;7127;49.372;8.166;2023-11-19T11:58:31;1.07;;;0.80;;
14100;SDS011;7127;49.372;8.166;2023-11-19T12:00:59;1.27;;;0.70;;
14100;SDS011;7127;49.372;8.166;2023-11-19T12:03:28;1.77;;;0.60;;
14100;SDS011;7127;49.372;8.166;2023-11-19T12:05:57;2.80;;;0.77;;
14100;SDS011;7127;49.372;8.166;2023-11-19T12:08:25;1.53;;;0.67;;
14100;SDS011;7127;49.372;8.166;2023-11-19T12:10:53;1.07;;;0.70;;
14100;SDS011;7127;49.372;8.166;2023-11-19T12:13:23;1.63;;;0.80;;
14100;SDS011;7127;49.372;8.166;2023-11-19T12:16:08;1.70;;;0.77;;
14100;SDS011;7127;49.372;8.166;2023-11-19T12:18:36;2.23;;;0.80;;
14100;SDS011;7127;49.372;8.166;2023-11-19T12:21:07;1.60;;;0.73;;
14100;SDS011;7127;49.372;8.166;2023-11-19T12:23:35;0.93;;;0.60;;
14100;SDS011;7127;49.372;8.166;2023-11-19T12:29:00;3.40;;;1.00;;
14100;SDS011;7127;49.372;8.166;2023-11-19T12:31:29;1.67;;;0.73;;
14100;SDS011;7127;49.372;8.166;2023-11-19T12:33:56;1.07;;;0.50;;
14100;SDS011;7127;49.372;8.166;2023-11-19T12:36:24;1.87;;;0.80;;
14100;SDS011;7127;49.372;8.166;2023-11-19T12:38:51;1.50;;;0.63;;
14100;SDS011;7127;49.372;8.166;2023-11-19T12:41:18;1.50;;;0.80;;
14100;SDS011;7127;49.372;8.166;2023-11-19T12:43:48;0.70;;;0.60;;
14100;SDS011;7127;49.372;8.166;2023-11-19T12:46:18;2.20;;;1.00;;
14100;SDS011;7127;49.372;8.166;2023-11-19T12:48:46;2.00;;;0.77;;
14100;SDS011;7127;49.372;8.166;2023-11-19T12:51:19;0.97;;;0.77;;
14100;SDS011;7127;49.372;8.166;2023-11-19T12:53:52;1.10;;;0.60;;
14100;SDS011;7127;49.372;8.166;2023-11-19T12:56:23;4.87;;;2.30;;
14100;SDS011;7127;49.372;8.166;2023-11-19T12:58:50;2.93;;;1.33;;
14100;SDS011;7127;49.372;8.166;2023-11-19T13:01:17;2.33;;;1.03;;
14100;SDS011;7127;49.372;8.166;2023-11-19T13:03:45;1.17;;;0.77;;
14100;SDS011;7127;49.372;8.166;2023-11-19T13:06:14;0.87;;;0.73;;
14100;SDS011;7127;49.372;8.166;2023-11-19T13:08:41;1.30;;;0.70;;
14100;SDS011;7127;49.372;8.166;2023-11-19T13:11:11;2.07;;;0.77;;
14100;SDS011;7127;49.372;8.166;2023-11-19T13:13:53;0.97;;;0.60;;
14100;SDS011;7127;49.372;8.166;2023-11-19T13:16:20;1.07;;;0.80;;
14100;SDS011;7127;49.372;8.166;2023-11-19T13:18:47;2.80;;;0.90;;
14100;SDS011;7127;49.372;8.166;2023-11-19T13:21:14;3.30;;;0.73;;
14100;SDS011;7127;49.372;8.166;2023-11-19T13:23:41;1.50;;;0.70;;
14100;SDS011;7127;49.372;8.166;2023-11-19T13:26:08;1.67;;;0.73;;
14100;SDS011;7127;49.372;8.166;2023-11-19T13:28:37;1.23;;;0.70;;
14100;SDS011;7127;49.372;8.166;2023-11-19T13:31:04;1.93;;;0.63;;
14100;SDS011;7127;49.372;8.166;2023-11-19T13:33:31;1.20;;;0.70;;
14100;SDS011;7127;49.372;8.166;2023-11-19T13:35:58;0.80;;;0.77;;
14100;SDS011;7127;49.372;8.166;2023-11-19T13:38:26;1.97;;;0.70;;
14100;SDS011;7127;49.372;8.166;2023-11-19T13:40:53;1.33;;;0.60;;
14100;SDS011;7127;49.372;8.166;2023-11-19T13:43:22;2.70;;;1.00;;
14100;SDS011;7127;49.372;8.166;2023-11-19T13:45:51;1.07;;;0.60;;
14100;SDS011;7127;49.372;8.166;2023-11-19T13:48:18;1.80;;;0.83;;
14100;SDS011;7127;49.372;8.166;2023-11-19T13:50:45;0.60;;;0.50;;
14100;SDS011;7127;49.372;8.166;2023-11-19T13:53:11;1.53;;;0.70;;
14100;SDS011;7127;49.372;8.166;2023-11-19T13:55:38;1.77;;;0.90;;
14100;SDS011;7127;49.372;8.166;2023-11-19T13:58:05;1.97;;;0.80;;
14100;SDS011;7127;49.372;8.166;2023-11-19T14:00:34;1.97;;;0.90;;
14100;SDS011;7127;49.372;8.166;2023-11-19T14:03:03;1.73;;;0.70;;
14100;SDS011;7127;49.372;8.166;2023-11-19T14:05:30;2.03;;;0.70;;
14100;SDS011;7127;49.372;8.166;2023-11-19T14:07:57;1.20;;;0.80;;
14100;SDS011;7127;49.372;8.166;2023-11-19T14:10:24;1.23;;;0.50;;
14100;SDS011;7127;49.372;8.166;2023-11-19T14:12:50;2.13;;;0.90;;
14100;SDS011;7127;49.372;8.166;2023-11-19T14:15:17;2.00;;;0.73;;
14100;SDS011;7127;49.372;8.166;2023-11-19T14:17:44;2.60;;;0.63;;
14100;SDS011;7127;49.372;8.166;2023-11-19T14:20:13;1.73;;;1.00;;
14100;SDS011;7127;49.372;8.166;2023-11-19T14:26:06;1.23;;;0.90;;
14100;SDS011;7127;49.372;8.166;2023-11-19T14:30:00;1.63;;;0.87;;
14100;SDS011;7127;49.372;8.166;2023-11-19T14:35:31;1.37;;;0.70;;
14100;SDS011;7127;49.372;8.166;2023-11-19T14:38:01;2.20;;;0.90;;
14100;SDS011;7127;49.372;8.166;2023-11-19T14:40:30;2.07;;;0.80;;
14100;SDS011;7127;49.372;8.166;2023-11-19T14:42:56;1.83;;;0.90;;
14100;SDS011;7127;49.372;8.166;2023-11-19T14:45:23;1.37;;;0.83;;
14100;SDS011;7127;49.372;8.166;2023-11-19T14:47:50;2.53;;;0.63;;
14100;SDS011;7127;49.372;8.166;2023-11-19T14:50:18;1.80;;;0.80;;
14100;SDS011;7127;49.372;8.166;2023-11-19T14:52:46;2.07;;;0.80;;
14100;SDS011;7127;49.372;8.166;2023-11-19T14:55:13;1.17;;;0.50;;
14100;SDS011;7127;49.372;8.166;2023-11-19T14:57:40;0.67;;;0.43;;
14100;SDS011;7127;49.372;8.166;2023-11-19T15:00:07;1.53;;;0.50;;
14100;SDS011;7127;49.372;8.166;2023-11-19T15:02:38;1.70;;;0.70;;
14100;SDS011;7127;49.372;8.166;2023-11-19T15:05:06;1.83;;;0.70;;
14100;SDS011;7127;49.372;8.166;2023-11-19T15:07:34;1.50;;;0.80;;
14100;SDS011;7127;49.372;8.166;2023-11-19T15:10:03;1.27;;;0.77;;
14100;SDS011;7127;49.372;8.166;2023-11-19T15:12:35;1.30;;;0.93;;
14100;SDS011;7127;49.372;8.166;2023-11-19T15:15:05;1.23;;;0.73;;
14100;SDS011;7127;49.372;8.166;2023-11-19T15:17:33;2.23;;;0.73;;
14100;SDS011;7127;49.372;8.166;2023-11-19T15:20:00;2.63;;;0.70;;
14100;SDS011;7127;49.372;8.166;2023-11-19T15:22:28;2.17;;;0.80;;
14100;SDS011;7127;49.372;8.166;2023-11-19T15:24:54;2.87;;;0.93;;